sensor_id;sensor_type;location;lat;lon;timestamp;P1;durP1;ratioP1;P2;durP2;ratioP2
33152;SDS011;19509;43.862;26.176;2022-07-23T00:00:47;5.37;;;4.10;;
33152;SDS011;19509;43.862;26.176;2022-07-23T00:03:13;5.60;;;4.17;;
33152;SDS011;19509;43.862;26.176;2022-07-23T00:05:38;5.40;;;3.87;;
33152;SDS011;19509;43.862;26.176;2022-07-23T00:08:04;7.90;;;3.93;;
33152;SDS011;19509;43.862;26.176;2022-07-23T00:10:31;8.27;;;3.90;;
33152;SDS011;19509;43.862;26.176;2022-07-23T00:12:56;5.77;;;4.53;;
33152;SDS011;19509;43.862;26.176;2022-07-23T00:15:22;8.63;;;4.03;;
33152;SDS011;19509;43.862;26.176;2022-07-23T00:17:47;8.10;;;4.20;;
33152;SDS011;19509;43.862;26.176;2022-07-23T00:20:13;6.87;;;3.97;;
33152;SDS011;19509;43.862;26.176;2022-07-23T00:22:48;4.70;;;4.20;;
33152;SDS011;19509;43.862;26.176;2022-07-23T00:25:15;5.20;;;3.80;;
33152;SDS011;19509;43.862;26.176;2022-07-23T00:27:40;7.23;;;4.07;;
33152;SDS011;19509;43.862;26.176;2022-07-23T00:30:06;6.87;;;4.00;;
33152;SDS011;19509;43.862;26.176;2022-07-23T00:32:44;5.40;;;3.50;;
33152;SDS011;19509;43.862;26.176;2022-07-23T00:35:21;9.10;;;4.17;;
33152;SDS011;19509;43.862;26.176;2022-07-23T00:37:48;8.60;;;4.20;;
33152;SDS011;19509;43.862;26.176;2022-07-23T00:40:13;6.70;;;4.03;;
33152;SDS011;19509;43.862;26.176;2022-07-23T00:42:39;9.00;;;4.33;;
33152;SDS011;19509;43.862;26.176;2022-07-23T00:45:05;8.30;;;4.53;;
33152;SDS011;19509;43.862;26.176;2022-07-23T00:47:31;7.03;;;3.90;;
33152;SDS011;19509;43.862;26.176;2022-07-23T00:49:57;6.83;;;4.10;;
33152;SDS011;19509;43.862;26.176;2022-07-23T00:52:23;6.77;;;4.27;;
33152;SDS011;19509;43.862;26.176;2022-07-23T00:54:49;6.23;;;4.57;;
33152;SDS011;19509;43.862;26.176;2022-07-23T00:57:15;6.50;;;4.20;;
33152;SDS011;19509;43.862;26.176;2022-07-23T00:59:41;6.63;;;4.27;;
33152;SDS011;19509;43.862;26.176;2022-07-23T01:02:07;5.70;;;4.50;;
33152;SDS011;19509;43.862;26.176;2022-07-23T01:04:32;10.53;;;4.57;;
33152;SDS011;19509;43.862;26.176;2022-07-23T01:06:58;10.70;;;3.93;;
33152;SDS011;19509;43.862;26.176;2022-07-23T01:09:24;5.10;;;4.20;;
33152;SDS011;19509;43.862;26.176;2022-07-23T01:11:51;5.43;;;4.30;;
33152;SDS011;19509;43.862;26.176;2022-07-23T01:14:18;5.17;;;4.07;;
33152;SDS011;19509;43.862;26.176;2022-07-23T01:16:46;6.63;;;4.37;;
33152;SDS011;19509;43.862;26.176;2022-07-23T01:19:13;10.93;;;4.83;;
33152;SDS011;19509;43.862;26.176;2022-07-23T01:21:40;6.83;;;4.10;;
33152;SDS011;19509;43.862;26.176;2022-07-23T01:24:07;6.97;;;4.33;;
33152;SDS011;19509;43.862;26.176;2022-07-23T01:26:34;9.67;;;4.20;;
33152;SDS011;19509;43.862;26.176;2022-07-23T01:29:00;8.20;;;4.37;;
33152;SDS011;19509;43.862;26.176;2022-07-23T01:31:26;14.33;;;4.63;;
33152;SDS011;19509;43.862;26.176;2022-07-23T01:33:51;6.90;;;4.60;;
33152;SDS011;19509;43.862;26.176;2022-07-23T01:36:17;6.73;;;4.70;;
33152;SDS011;19509;43.862;26.176;2022-07-23T01:38:42;6.00;;;4.33;;
33152;SDS011;19509;43.862;26.176;2022-07-23T01:41:08;7.63;;;4.17;;
33152;SDS011;19509;43.862;26.176;2022-07-23T01:43:33;8.53;;;4.43;;
33152;SDS011;19509;43.862;26.176;2022-07-23T01:45:59;6.80;;;4.23;;
33152;SDS011;19509;43.862;26.176;2022-07-23T01:48:24;5.47;;;4.10;;
33152;SDS011;19509;43.862;26.176;2022-07-23T01:50:50;8.40;;;4.03;;
33152;SDS011;19509;43.862;26.176;2022-07-23T01:53:16;8.40;;;4.50;;
33152;SDS011;19509;43.862;26.176;2022-07-23T01:55:41;8.90;;;4.30;;
33152;SDS011;19509;43.862;26.176;2022-07-23T01:58:07;5.30;;;4.13;;
33152;SDS011;19509;43.862;26.176;2022-07-23T02:00:33;7.10;;;4.57;;
33152;SDS011;19509;43.862;26.176;2022-07-23T02:02:58;6.70;;;4.27;;
33152;SDS011;19509;43.862;26.176;2022-07-23T02:05:24;7.33;;;4.40;;
33152;SDS011;19509;43.862;26.176;2022-07-23T02:07:50;6.50;;;4.20;;
33152;SDS011;19509;43.862;26.176;2022-07-23T02:10:16;7.63;;;4.10;;
33152;SDS011;19509;43.862;26.176;2022-07-23T02:12:42;11.87;;;5.03;;
33152;SDS011;19509;43.862;26.176;2022-07-23T02:15:07;4.80;;;3.90;;
33152;SDS011;19509;43.862;26.176;2022-07-23T02:17:33;7.07;;;4.20;;
33152;SDS011;19509;43.862;26.176;2022-07-23T02:19:58;8.33;;;4.37;;
33152;SDS011;19509;43.862;26.176;2022-07-23T02:22:24;6.33;;;4.17;;
33152;SDS011;19509;43.862;26.176;2022-07-23T02:24:49;8.17;;;4.57;;
33152;SDS011;19509;43.862;26.176;2022-07-23T02:27:14;8.77;;;4.97;;
33152;SDS011;19509;43.862;26.176;2022-07-23T02:29:40;6.73;;;4.33;;
33152;SDS011;19509;43.862;26.176;2022-07-23T02:32:05;7.83;;;4.23;;
33152;SDS011;19509;43.862;26.176;2022-07-23T02:34:31;10.37;;;4.70;;
33152;SDS011;19509;43.862;26.176;2022-07-23T02:36:56;5.27;;;3.80;;
33152;SDS011;19509;43.862;26.176;2022-07-23T02:39:22;7.00;;;4.13;;
33152;SDS011;19509;43.862;26.176;2022-07-23T02:41:47;6.83;;;4.20;;
33152;SDS011;19509;43.862;26.176;2022-07-23T02:44:12;6.83;;;4.57;;
33152;SDS011;19509;43.862;26.176;2022-07-23T02:46:38;5.67;;;4.13;;
33152;SDS011;19509;43.862;26.176;2022-07-23T02:49:03;11.57;;;4.60;;
33152;SDS011;19509;43.862;26.176;2022-07-23T02:51:29;11.63;;;4.97;;
33152;SDS011;19509;43.862;26.176;2022-07-23T02:53:55;5.93;;;4.40;;
33152;SDS011;19509;43.862;26.176;2022-07-23T03:07:37;5.87;;;4.17;;
33152;SDS011;19509;43.862;26.176;2022-07-23T03:10:03;7.90;;;4.30;;
33152;SDS011;19509;43.862;26.176;2022-07-23T03:12:29;10.40;;;4.60;;
33152;SDS011;19509;43.862;26.176;2022-07-23T03:14:54;10.20;;;4.77;;
33152;SDS011;19509;43.862;26.176;2022-07-23T03:17:19;7.90;;;4.40;;
33152;SDS011;19509;43.862;26.176;2022-07-23T03:19:45;8.37;;;4.83;;
33152;SDS011;19509;43.862;26.176;2022-07-23T03:22:10;9.50;;;4.50;;
33152;SDS011;19509;43.862;26.176;2022-07-23T03:24:36;12.67;;;4.50;;
33152;SDS011;19509;43.862;26.176;2022-07-23T03:27:26;7.37;;;4.40;;
33152;SDS011;19509;43.862;26.176;2022-07-23T03:29:54;7.83;;;4.27;;
33152;SDS011;19509;43.862;26.176;2022-07-23T03:32:21;9.73;;;4.40;;
33152;SDS011;19509;43.862;26.176;2022-07-23T03:34:46;6.87;;;4.50;;
33152;SDS011;19509;43.862;26.176;2022-07-23T03:37:12;8.27;;;4.43;;
33152;SDS011;19509;43.862;26.176;2022-07-23T03:39:37;7.90;;;4.50;;
33152;SDS011;19509;43.862;26.176;2022-07-23T03:42:03;11.80;;;5.00;;
33152;SDS011;19509;43.862;26.176;2022-07-23T03:44:29;10.40;;;4.90;;
33152;SDS011;19509;43.862;26.176;2022-07-23T03:46:54;7.67;;;4.50;;
33152;SDS011;19509;43.862;26.176;2022-07-23T03:49:20;6.30;;;4.57;;
33152;SDS011;19509;43.862;26.176;2022-07-23T03:51:45;9.97;;;4.90;;
33152;SDS011;19509;43.862;26.176;2022-07-23T03:54:11;5.70;;;4.60;;
33152;SDS011;19509;43.862;26.176;2022-07-23T03:56:36;6.40;;;4.40;;
33152;SDS011;19509;43.862;26.176;2022-07-23T03:59:02;6.10;;;4.30;;
33152;SDS011;19509;43.862;26.176;2022-07-23T04:01:27;9.27;;;4.80;;
33152;SDS011;19509;43.862;26.176;2022-07-23T04:03:53;7.47;;;4.70;;
33152;SDS011;19509;43.862;26.176;2022-07-23T04:06:18;5.40;;;4.40;;
33152;SDS011;19509;43.862;26.176;2022-07-23T04:08:44;7.20;;;4.70;;
33152;SDS011;19509;43.862;26.176;2022-07-23T04:11:09;6.90;;;4.47;;
33152;SDS011;19509;43.862;26.176;2022-07-23T04:13:35;5.07;;;4.40;;
33152;SDS011;19509;43.862;26.176;2022-07-23T04:16:00;10.50;;;4.87;;
33152;SDS011;19509;43.862;26.176;2022-07-23T04:18:25;9.40;;;4.90;;
33152;SDS011;19509;43.862;26.176;2022-07-23T04:20:51;10.70;;;5.37;;
33152;SDS011;19509;43.862;26.176;2022-07-23T04:23:17;9.13;;;5.30;;
33152;SDS011;19509;43.862;26.176;2022-07-23T04:25:42;7.13;;;4.70;;
33152;SDS011;19509;43.862;26.176;2022-07-23T04:28:08;8.10;;;4.77;;
33152;SDS011;19509;43.862;26.176;2022-07-23T04:30:33;6.13;;;5.17;;
33152;SDS011;19509;43.862;26.176;2022-07-23T04:32:59;8.10;;;4.87;;
33152;SDS011;19509;43.862;26.176;2022-07-23T04:35:25;6.27;;;4.27;;
33152;SDS011;19509;43.862;26.176;2022-07-23T04:37:50;8.77;;;4.33;;
33152;SDS011;19509;43.862;26.176;2022-07-23T04:40:17;6.90;;;4.33;;
33152;SDS011;19509;43.862;26.176;2022-07-23T04:42:43;8.13;;;4.70;;
33152;SDS011;19509;43.862;26.176;2022-07-23T04:45:08;7.80;;;4.40;;
33152;SDS011;19509;43.862;26.176;2022-07-23T04:47:34;9.03;;;4.43;;
33152;SDS011;19509;43.862;26.176;2022-07-23T04:49:59;9.83;;;4.40;;
33152;SDS011;19509;43.862;26.176;2022-07-23T04:52:25;6.53;;;4.30;;
33152;SDS011;19509;43.862;26.176;2022-07-23T04:54:50;9.87;;;4.80;;
33152;SDS011;19509;43.862;26.176;2022-07-23T04:57:16;11.40;;;4.50;;
33152;SDS011;19509;43.862;26.176;2022-07-23T04:59:41;5.20;;;4.00;;
33152;SDS011;19509;43.862;26.176;2022-07-23T05:02:06;9.30;;;4.30;;
33152;SDS011;19509;43.862;26.176;2022-07-23T05:04:32;6.57;;;3.90;;
33152;SDS011;19509;43.862;26.176;2022-07-23T05:06:58;8.43;;;4.57;;
33152;SDS011;19509;43.862;26.176;2022-07-23T05:09:24;7.97;;;4.50;;
33152;SDS011;19509;43.862;26.176;2022-07-23T05:11:50;19.03;;;4.60;;
33152;SDS011;19509;43.862;26.176;2022-07-23T05:14:15;6.90;;;4.13;;
33152;SDS011;19509;43.862;26.176;2022-07-23T05:16:41;9.87;;;3.80;;
33152;SDS011;19509;43.862;26.176;2022-07-23T05:19:07;5.03;;;4.00;;
33152;SDS011;19509;43.862;26.176;2022-07-23T05:21:32;7.30;;;4.07;;
33152;SDS011;19509;43.862;26.176;2022-07-23T05:23:58;7.13;;;4.03;;
33152;SDS011;19509;43.862;26.176;2022-07-23T05:26:24;10.67;;;4.63;;
33152;SDS011;19509;43.862;26.176;2022-07-23T05:28:50;10.90;;;4.20;;
33152;SDS011;19509;43.862;26.176;2022-07-23T05:31:16;13.23;;;4.57;;
33152;SDS011;19509;43.862;26.176;2022-07-23T05:33:42;7.10;;;4.20;;
33152;SDS011;19509;43.862;26.176;2022-07-23T05:36:07;6.33;;;4.33;;
33152;SDS011;19509;43.862;26.176;2022-07-23T05:38:34;8.60;;;4.23;;
33152;SDS011;19509;43.862;26.176;2022-07-23T05:40:59;5.80;;;3.60;;
33152;SDS011;19509;43.862;26.176;2022-07-23T05:43:25;13.97;;;3.90;;
33152;SDS011;19509;43.862;26.176;2022-07-23T05:45:51;4.60;;;3.70;;
33152;SDS011;19509;43.862;26.176;2022-07-23T05:48:17;7.53;;;4.33;;
33152;SDS011;19509;43.862;26.176;2022-07-23T05:50:42;10.83;;;4.43;;
33152;SDS011;19509;43.862;26.176;2022-07-23T05:53:08;7.57;;;3.80;;
33152;SDS011;19509;43.862;26.176;2022-07-23T05:55:33;8.03;;;4.13;;
33152;SDS011;19509;43.862;26.176;2022-07-23T05:57:59;7.93;;;4.47;;
33152;SDS011;19509;43.862;26.176;2022-07-23T06:00:25;8.53;;;4.03;;
33152;SDS011;19509;43.862;26.176;2022-07-23T06:02:51;6.00;;;3.80;;
33152;SDS011;19509;43.862;26.176;2022-07-23T06:05:17;7.90;;;4.60;;
33152;SDS011;19509;43.862;26.176;2022-07-23T06:07:42;14.63;;;4.67;;
33152;SDS011;19509;43.862;26.176;2022-07-23T06:10:08;7.93;;;4.10;;
33152;SDS011;19509;43.862;26.176;2022-07-23T06:12:34;8.53;;;4.60;;
33152;SDS011;19509;43.862;26.176;2022-07-23T06:15:00;7.87;;;4.70;;
33152;SDS011;19509;43.862;26.176;2022-07-23T06:17:26;7.73;;;4.17;;
33152;SDS011;19509;43.862;26.176;2022-07-23T06:19:52;9.43;;;4.00;;
33152;SDS011;19509;43.862;26.176;2022-07-23T06:22:18;8.57;;;4.63;;
33152;SDS011;19509;43.862;26.176;2022-07-23T06:24:43;7.80;;;4.83;;
33152;SDS011;19509;43.862;26.176;2022-07-23T06:27:09;8.80;;;4.37;;
33152;SDS011;19509;43.862;26.176;2022-07-23T06:29:34;10.43;;;4.20;;
33152;SDS011;19509;43.862;26.176;2022-07-23T06:32:00;9.33;;;4.50;;
33152;SDS011;19509;43.862;26.176;2022-07-23T06:34:25;6.93;;;3.83;;
33152;SDS011;19509;43.862;26.176;2022-07-23T06:36:51;7.07;;;4.23;;
33152;SDS011;19509;43.862;26.176;2022-07-23T06:39:16;7.57;;;4.13;;
33152;SDS011;19509;43.862;26.176;2022-07-23T06:41:42;7.73;;;4.10;;
33152;SDS011;19509;43.862;26.176;2022-07-23T06:44:07;5.60;;;4.03;;
33152;SDS011;19509;43.862;26.176;2022-07-23T06:46:32;6.30;;;4.10;;
33152;SDS011;19509;43.862;26.176;2022-07-23T06:48:58;7.97;;;4.43;;
33152;SDS011;19509;43.862;26.176;2022-07-23T06:51:24;8.73;;;4.67;;
33152;SDS011;19509;43.862;26.176;2022-07-23T06:53:49;8.00;;;4.00;;
33152;SDS011;19509;43.862;26.176;2022-07-23T06:56:14;6.03;;;3.93;;
33152;SDS011;19509;43.862;26.176;2022-07-23T06:58:40;7.87;;;3.97;;
33152;SDS011;19509;43.862;26.176;2022-07-23T07:01:05;7.60;;;4.37;;
33152;SDS011;19509;43.862;26.176;2022-07-23T07:03:31;8.30;;;3.90;;
33152;SDS011;19509;43.862;26.176;2022-07-23T07:05:56;8.27;;;4.07;;
33152;SDS011;19509;43.862;26.176;2022-07-23T07:08:22;6.70;;;4.20;;
33152;SDS011;19509;43.862;26.176;2022-07-23T07:10:48;7.60;;;4.00;;
33152;SDS011;19509;43.862;26.176;2022-07-23T07:13:14;8.93;;;4.17;;
33152;SDS011;19509;43.862;26.176;2022-07-23T07:15:40;9.40;;;3.83;;
33152;SDS011;19509;43.862;26.176;2022-07-23T07:18:06;6.03;;;3.63;;
33152;SDS011;19509;43.862;26.176;2022-07-23T07:20:31;7.80;;;4.30;;
33152;SDS011;19509;43.862;26.176;2022-07-23T07:22:56;6.33;;;3.77;;
33152;SDS011;19509;43.862;26.176;2022-07-23T07:25:22;10.20;;;4.13;;
33152;SDS011;19509;43.862;26.176;2022-07-23T07:27:47;8.90;;;4.03;;
33152;SDS011;19509;43.862;26.176;2022-07-23T07:30:13;7.63;;;4.60;;
33152;SDS011;19509;43.862;26.176;2022-07-23T07:32:38;14.97;;;4.30;;
33152;SDS011;19509;43.862;26.176;2022-07-23T07:35:05;8.40;;;4.10;;
33152;SDS011;19509;43.862;26.176;2022-07-23T07:37:31;9.83;;;4.43;;
33152;SDS011;19509;43.862;26.176;2022-07-23T07:39:56;9.30;;;3.97;;
33152;SDS011;19509;43.862;26.176;2022-07-23T07:42:22;7.07;;;3.73;;
33152;SDS011;19509;43.862;26.176;2022-07-23T07:44:47;5.23;;;3.70;;
33152;SDS011;19509;43.862;26.176;2022-07-23T07:47:13;7.10;;;3.93;;
33152;SDS011;19509;43.862;26.176;2022-07-23T07:49:40;8.50;;;4.13;;
33152;SDS011;19509;43.862;26.176;2022-07-23T07:52:06;6.30;;;3.87;;
33152;SDS011;19509;43.862;26.176;2022-07-23T07:54:31;8.77;;;4.13;;
33152;SDS011;19509;43.862;26.176;2022-07-23T07:56:57;8.10;;;3.70;;
33152;SDS011;19509;43.862;26.176;2022-07-23T07:59:23;9.43;;;3.90;;
33152;SDS011;19509;43.862;26.176;2022-07-23T08:01:48;7.40;;;3.77;;
33152;SDS011;19509;43.862;26.176;2022-07-23T08:04:13;12.60;;;4.17;;
33152;SDS011;19509;43.862;26.176;2022-07-23T08:06:39;7.57;;;3.63;;
33152;SDS011;19509;43.862;26.176;2022-07-23T08:09:04;7.80;;;3.70;;
33152;SDS011;19509;43.862;26.176;2022-07-23T08:11:30;6.50;;;4.30;;
33152;SDS011;19509;43.862;26.176;2022-07-23T08:13:55;10.67;;;4.17;;
33152;SDS011;19509;43.862;26.176;2022-07-23T08:16:21;8.80;;;4.00;;
33152;SDS011;19509;43.862;26.176;2022-07-23T08:18:46;9.37;;;4.63;;
33152;SDS011;19509;43.862;26.176;2022-07-23T08:21:12;6.40;;;3.57;;
33152;SDS011;19509;43.862;26.176;2022-07-23T08:23:37;9.30;;;4.10;;
33152;SDS011;19509;43.862;26.176;2022-07-23T08:26:03;6.13;;;3.90;;
33152;SDS011;19509;43.862;26.176;2022-07-23T08:28:28;6.37;;;3.43;;
33152;SDS011;19509;43.862;26.176;2022-07-23T08:30:54;8.37;;;4.07;;
33152;SDS011;19509;43.862;26.176;2022-07-23T08:33:19;5.73;;;3.23;;
33152;SDS011;19509;43.862;26.176;2022-07-23T08:35:46;9.33;;;3.67;;
33152;SDS011;19509;43.862;26.176;2022-07-23T08:38:14;8.00;;;3.67;;
33152;SDS011;19509;43.862;26.176;2022-07-23T08:40:45;9.07;;;3.70;;
33152;SDS011;19509;43.862;26.176;2022-07-23T08:43:14;6.23;;;3.27;;
33152;SDS011;19509;43.862;26.176;2022-07-23T08:45:45;15.50;;;3.80;;
33152;SDS011;19509;43.862;26.176;2022-07-23T08:48:19;6.70;;;3.80;;
33152;SDS011;19509;43.862;26.176;2022-07-23T08:50:56;7.13;;;3.30;;
33152;SDS011;19509;43.862;26.176;2022-07-23T08:53:24;9.00;;;3.33;;
33152;SDS011;19509;43.862;26.176;2022-07-23T08:56:01;5.60;;;4.00;;
33152;SDS011;19509;43.862;26.176;2022-07-23T08:58:28;7.40;;;3.50;;
33152;SDS011;19509;43.862;26.176;2022-07-23T09:00:54;8.30;;;3.13;;
33152;SDS011;19509;43.862;26.176;2022-07-23T09:03:25;7.63;;;3.73;;
33152;SDS011;19509;43.862;26.176;2022-07-23T09:05:56;5.60;;;3.60;;
33152;SDS011;19509;43.862;26.176;2022-07-23T09:08:23;6.67;;;3.67;;
33152;SDS011;19509;43.862;26.176;2022-07-23T09:13:25;7.40;;;3.70;;
33152;SDS011;19509;43.862;26.176;2022-07-23T09:16:11;5.00;;;3.80;;
33152;SDS011;19509;43.862;26.176;2022-07-23T09:18:48;7.63;;;3.83;;
33152;SDS011;19509;43.862;26.176;2022-07-23T09:21:35;14.60;;;4.10;;
33152;SDS011;19509;43.862;26.176;2022-07-23T09:24:05;6.90;;;3.80;;
33152;SDS011;19509;43.862;26.176;2022-07-23T09:26:43;5.70;;;3.57;;
33152;SDS011;19509;43.862;26.176;2022-07-23T09:29:19;6.33;;;4.10;;
33152;SDS011;19509;43.862;26.176;2022-07-23T09:34:26;5.20;;;3.30;;
33152;SDS011;19509;43.862;26.176;2022-07-23T09:36:53;6.40;;;3.57;;
33152;SDS011;19509;43.862;26.176;2022-07-23T09:39:28;9.50;;;3.70;;
33152;SDS011;19509;43.862;26.176;2022-07-23T09:41:55;10.10;;;3.50;;
33152;SDS011;19509;43.862;26.176;2022-07-23T09:44:20;5.33;;;3.60;;
33152;SDS011;19509;43.862;26.176;2022-07-23T09:46:47;9.23;;;3.80;;
33152;SDS011;19509;43.862;26.176;2022-07-23T09:49:15;7.70;;;3.97;;
33152;SDS011;19509;43.862;26.176;2022-07-23T09:51:46;6.33;;;3.60;;
33152;SDS011;19509;43.862;26.176;2022-07-23T09:54:21;8.33;;;3.40;;
33152;SDS011;19509;43.862;26.176;2022-07-23T09:56:47;7.17;;;3.80;;
33152;SDS011;19509;43.862;26.176;2022-07-23T09:59:13;4.80;;;3.53;;
33152;SDS011;19509;43.862;26.176;2022-07-23T10:01:43;8.80;;;3.83;;
33152;SDS011;19509;43.862;26.176;2022-07-23T10:04:10;7.07;;;4.10;;
33152;SDS011;19509;43.862;26.176;2022-07-23T10:06:37;5.13;;;3.87;;
33152;SDS011;19509;43.862;26.176;2022-07-23T10:09:04;6.70;;;4.27;;
33152;SDS011;19509;43.862;26.176;2022-07-23T10:11:30;11.33;;;4.33;;
33152;SDS011;19509;43.862;26.176;2022-07-23T10:13:58;8.30;;;3.93;;
33152;SDS011;19509;43.862;26.176;2022-07-23T10:16:25;10.17;;;4.10;;
33152;SDS011;19509;43.862;26.176;2022-07-23T10:18:51;7.00;;;3.60;;
33152;SDS011;19509;43.862;26.176;2022-07-23T10:22:00;9.83;;;4.13;;
33152;SDS011;19509;43.862;26.176;2022-07-23T10:29:40;5.13;;;4.00;;
33152;SDS011;19509;43.862;26.176;2022-07-23T10:32:16;7.40;;;3.90;;
33152;SDS011;19509;43.862;26.176;2022-07-23T10:35:09;8.00;;;4.43;;
33152;SDS011;19509;43.862;26.176;2022-07-23T10:37:50;7.93;;;3.67;;
33152;SDS011;19509;43.862;26.176;2022-07-23T10:40:20;8.87;;;4.03;;
33152;SDS011;19509;43.862;26.176;2022-07-23T10:42:48;10.73;;;4.77;;
33152;SDS011;19509;43.862;26.176;2022-07-23T10:48:11;6.73;;;4.20;;
33152;SDS011;19509;43.862;26.176;2022-07-23T10:50:41;5.80;;;3.97;;
33152;SDS011;19509;43.862;26.176;2022-07-23T10:53:08;7.50;;;4.00;;
33152;SDS011;19509;43.862;26.176;2022-07-23T10:55:40;8.50;;;4.10;;
33152;SDS011;19509;43.862;26.176;2022-07-23T10:58:07;11.23;;;4.50;;
33152;SDS011;19509;43.862;26.176;2022-07-23T11:00:33;12.93;;;4.43;;
33152;SDS011;19509;43.862;26.176;2022-07-23T11:03:01;14.27;;;4.80;;
33152;SDS011;19509;43.862;26.176;2022-07-23T11:05:44;7.40;;;4.23;;
33152;SDS011;19509;43.862;26.176;2022-07-23T11:11:26;8.43;;;4.70;;
33152;SDS011;19509;43.862;26.176;2022-07-23T11:13:39;8.60;;;4.30;;
33152;SDS011;19509;43.862;26.176;2022-07-23T11:24:08;5.70;;;4.40;;
33152;SDS011;19509;43.862;26.176;2022-07-23T11:26:48;9.87;;;4.97;;
33152;SDS011;19509;43.862;26.176;2022-07-23T11:34:47;9.57;;;4.53;;
33152;SDS011;19509;43.862;26.176;2022-07-23T11:40:01;9.80;;;5.00;;
33152;SDS011;19509;43.862;26.176;2022-07-23T11:42:38;15.00;;;5.00;;
33152;SDS011;19509;43.862;26.176;2022-07-23T11:45:24;7.83;;;4.87;;
33152;SDS011;19509;43.862;26.176;2022-07-23T11:47:54;7.03;;;4.30;;
33152;SDS011;19509;43.862;26.176;2022-07-23T11:50:22;8.83;;;4.10;;
33152;SDS011;19509;43.862;26.176;2022-07-23T11:52:49;10.20;;;4.83;;
33152;SDS011;19509;43.862;26.176;2022-07-23T11:55:15;10.57;;;4.43;;
33152;SDS011;19509;43.862;26.176;2022-07-23T11:57:41;7.20;;;4.40;;
33152;SDS011;19509;43.862;26.176;2022-07-23T12:00:09;5.60;;;4.77;;
33152;SDS011;19509;43.862;26.176;2022-07-23T12:02:43;8.57;;;4.67;;
33152;SDS011;19509;43.862;26.176;2022-07-23T12:05:11;11.77;;;5.03;;
33152;SDS011;19509;43.862;26.176;2022-07-23T12:07:40;10.70;;;5.37;;
33152;SDS011;19509;43.862;26.176;2022-07-23T12:15:22;8.50;;;5.00;;
33152;SDS011;19509;43.862;26.176;2022-07-23T12:17:56;9.00;;;4.83;;
33152;SDS011;19509;43.862;26.176;2022-07-23T12:20:23;6.70;;;4.60;;
33152;SDS011;19509;43.862;26.176;2022-07-23T12:22:52;8.30;;;4.73;;
33152;SDS011;19509;43.862;26.176;2022-07-23T12:25:22;10.63;;;5.10;;
33152;SDS011;19509;43.862;26.176;2022-07-23T12:28:00;7.10;;;4.80;;
33152;SDS011;19509;43.862;26.176;2022-07-23T12:30:46;8.70;;;4.90;;
33152;SDS011;19509;43.862;26.176;2022-07-23T12:35:58;7.60;;;4.90;;
33152;SDS011;19509;43.862;26.176;2022-07-23T12:38:25;6.23;;;4.87;;
33152;SDS011;19509;43.862;26.176;2022-07-23T12:40:56;7.90;;;5.10;;
33152;SDS011;19509;43.862;26.176;2022-07-23T12:45:55;10.50;;;5.10;;
33152;SDS011;19509;43.862;26.176;2022-07-23T12:50:53;12.73;;;4.80;;
33152;SDS011;19509;43.862;26.176;2022-07-23T12:53:41;8.63;;;4.80;;
33152;SDS011;19509;43.862;26.176;2022-07-23T12:56:09;7.20;;;4.33;;
33152;SDS011;19509;43.862;26.176;2022-07-23T13:01:21;8.60;;;4.70;;
33152;SDS011;19509;43.862;26.176;2022-07-23T13:06:34;7.90;;;4.93;;
33152;SDS011;19509;43.862;26.176;2022-07-23T13:09:02;7.63;;;4.77;;
33152;SDS011;19509;43.862;26.176;2022-07-23T13:11:30;7.10;;;4.70;;
33152;SDS011;19509;43.862;26.176;2022-07-23T13:13:55;7.70;;;4.40;;
33152;SDS011;19509;43.862;26.176;2022-07-23T13:16:21;6.40;;;4.60;;
33152;SDS011;19509;43.862;26.176;2022-07-23T13:18:47;9.50;;;5.03;;
33152;SDS011;19509;43.862;26.176;2022-07-23T13:21:12;16.30;;;5.50;;
33152;SDS011;19509;43.862;26.176;2022-07-23T13:23:38;6.70;;;4.87;;
33152;SDS011;19509;43.862;26.176;2022-07-23T13:26:03;8.70;;;5.10;;
33152;SDS011;19509;43.862;26.176;2022-07-23T13:28:29;13.10;;;5.40;;
33152;SDS011;19509;43.862;26.176;2022-07-23T13:30:55;7.53;;;4.80;;
33152;SDS011;19509;43.862;26.176;2022-07-23T13:33:22;9.70;;;5.07;;
33152;SDS011;19509;43.862;26.176;2022-07-23T13:35:48;5.70;;;4.40;;
33152;SDS011;19509;43.862;26.176;2022-07-23T13:38:14;11.47;;;5.57;;
33152;SDS011;19509;43.862;26.176;2022-07-23T13:40:41;9.53;;;5.17;;
33152;SDS011;19509;43.862;26.176;2022-07-23T13:43:10;17.23;;;5.50;;
33152;SDS011;19509;43.862;26.176;2022-07-23T13:45:37;10.23;;;5.20;;
33152;SDS011;19509;43.862;26.176;2022-07-23T13:48:04;6.10;;;5.07;;
33152;SDS011;19509;43.862;26.176;2022-07-23T13:50:31;10.10;;;5.20;;
33152;SDS011;19509;43.862;26.176;2022-07-23T13:52:57;7.27;;;4.90;;
33152;SDS011;19509;43.862;26.176;2022-07-23T13:55:26;12.00;;;5.30;;
33152;SDS011;19509;43.862;26.176;2022-07-23T13:57:51;13.70;;;5.30;;
33152;SDS011;19509;43.862;26.176;2022-07-23T14:00:17;11.17;;;5.40;;
33152;SDS011;19509;43.862;26.176;2022-07-23T14:02:42;8.77;;;5.10;;
33152;SDS011;19509;43.862;26.176;2022-07-23T14:05:08;11.17;;;5.03;;
33152;SDS011;19509;43.862;26.176;2022-07-23T14:07:35;11.63;;;5.10;;
33152;SDS011;19509;43.862;26.176;2022-07-23T14:10:02;12.10;;;5.10;;
33152;SDS011;19509;43.862;26.176;2022-07-23T14:12:28;9.07;;;4.87;;
33152;SDS011;19509;43.862;26.176;2022-07-23T14:14:54;8.47;;;4.83;;
33152;SDS011;19509;43.862;26.176;2022-07-23T14:17:20;16.03;;;5.13;;
33152;SDS011;19509;43.862;26.176;2022-07-23T14:19:45;9.57;;;5.47;;
33152;SDS011;19509;43.862;26.176;2022-07-23T14:22:11;9.73;;;5.27;;
33152;SDS011;19509;43.862;26.176;2022-07-23T14:24:36;14.33;;;5.37;;
33152;SDS011;19509;43.862;26.176;2022-07-23T14:27:03;11.43;;;6.20;;
33152;SDS011;19509;43.862;26.176;2022-07-23T14:29:29;8.60;;;5.20;;
33152;SDS011;19509;43.862;26.176;2022-07-23T14:31:55;15.57;;;5.30;;
33152;SDS011;19509;43.862;26.176;2022-07-23T14:34:20;11.27;;;5.00;;
33152;SDS011;19509;43.862;26.176;2022-07-23T14:36:46;14.13;;;5.37;;
33152;SDS011;19509;43.862;26.176;2022-07-23T14:39:12;10.07;;;5.07;;
33152;SDS011;19509;43.862;26.176;2022-07-23T14:41:37;8.07;;;5.07;;
33152;SDS011;19509;43.862;26.176;2022-07-23T14:44:03;13.77;;;5.47;;
33152;SDS011;19509;43.862;26.176;2022-07-23T14:46:29;7.83;;;5.27;;
33152;SDS011;19509;43.862;26.176;2022-07-23T14:48:55;12.53;;;5.27;;
33152;SDS011;19509;43.862;26.176;2022-07-23T14:51:20;8.30;;;4.77;;
33152;SDS011;19509;43.862;26.176;2022-07-23T14:53:46;8.10;;;5.33;;
33152;SDS011;19509;43.862;26.176;2022-07-23T14:56:11;8.63;;;4.70;;
33152;SDS011;19509;43.862;26.176;2022-07-23T14:58:38;12.97;;;5.07;;
33152;SDS011;19509;43.862;26.176;2022-07-23T15:01:04;10.90;;;5.43;;
33152;SDS011;19509;43.862;26.176;2022-07-23T15:03:29;8.47;;;4.93;;
33152;SDS011;19509;43.862;26.176;2022-07-23T15:05:55;31.57;;;5.57;;
33152;SDS011;19509;43.862;26.176;2022-07-23T15:08:20;10.13;;;4.80;;
33152;SDS011;19509;43.862;26.176;2022-07-23T15:10:46;10.07;;;5.17;;
33152;SDS011;19509;43.862;26.176;2022-07-23T15:13:11;7.97;;;4.83;;
33152;SDS011;19509;43.862;26.176;2022-07-23T15:15:37;9.40;;;5.20;;
33152;SDS011;19509;43.862;26.176;2022-07-23T15:18:03;14.67;;;5.50;;
33152;SDS011;19509;43.862;26.176;2022-07-23T15:20:28;11.40;;;5.20;;
33152;SDS011;19509;43.862;26.176;2022-07-23T15:22:54;7.77;;;5.17;;
33152;SDS011;19509;43.862;26.176;2022-07-23T15:25:20;10.10;;;5.10;;
33152;SDS011;19509;43.862;26.176;2022-07-23T15:27:45;9.00;;;4.47;;
33152;SDS011;19509;43.862;26.176;2022-07-23T15:30:11;8.53;;;4.70;;
33152;SDS011;19509;43.862;26.176;2022-07-23T15:32:36;11.80;;;5.20;;